sensor_id;sensor_type;location;lat;lon;timestamp;temperature;humidity
54124;DHT22;55741;53.252;5.788;2024-02-15T00:00:23;10.40;99.90
54124;DHT22;55741;53.252;5.788;2024-02-15T00:02:52;10.40;99.90
54124;DHT22;55741;53.252;5.788;2024-02-15T00:05:20;10.30;99.90
54124;DHT22;55741;53.252;5.788;2024-02-15T00:07:48;10.40;99.90
54124;DHT22;55741;53.252;5.788;2024-02-15T00:10:16;10.40;99.90
54124;DHT22;55741;53.252;5.788;2024-02-15T00:12:43;10.40;99.90
54124;DHT22;55741;53.252;5.788;2024-02-15T00:15:11;10.40;99.90
54124;DHT22;55741;53.252;5.788;2024-02-15T00:17:39;10.40;99.90
54124;DHT22;55741;53.252;5.788;2024-02-15T00:20:07;10.40;99.90
54124;DHT22;55741;53.252;5.788;2024-02-15T00:22:36;10.40;99.90
54124;DHT22;55741;53.252;5.788;2024-02-15T00:25:04;10.50;99.90
54124;DHT22;55741;53.252;5.788;2024-02-15T00:27:33;10.40;99.90
54124;DHT22;55741;53.252;5.788;2024-02-15T00:30:02;10.40;99.90
54124;DHT22;55741;53.252;5.788;2024-02-15T00:32:30;10.40;99.90
54124;DHT22;55741;53.252;5.788;2024-02-15T00:34:57;10.40;99.90
54124;DHT22;55741;53.252;5.788;2024-02-15T00:37:25;10.30;99.90
54124;DHT22;55741;53.252;5.788;2024-02-15T00:39:52;10.30;99.90
54124;DHT22;55741;53.252;5.788;2024-02-15T00:42:20;10.30;99.90
54124;DHT22;55741;53.252;5.788;2024-02-15T00:44:47;10.30;99.90
54124;DHT22;55741;53.252;5.788;2024-02-15T00:47:15;10.30;99.90
54124;DHT22;55741;53.252;5.788;2024-02-15T00:49:45;10.30;99.90
54124;DHT22;55741;53.252;5.788;2024-02-15T00:52:12;10.20;99.90
54124;DHT22;55741;53.252;5.788;2024-02-15T00:54:40;10.10;99.90
54124;DHT22;55741;53.252;5.788;2024-02-15T00:57:07;10.00;99.90
54124;DHT22;55741;53.252;5.788;2024-02-15T00:59:35;10.10;99.90
54124;DHT22;55741;53.252;5.788;2024-02-15T01:02:03;10.00;99.90
54124;DHT22;55741;53.252;5.788;2024-02-15T01:04:31;9.90;99.90
54124;DHT22;55741;53.252;5.788;2024-02-15T01:06:58;10.00;99.90
54124;DHT22;55741;53.252;5.788;2024-02-15T01:09:26;9.90;99.90
54124;DHT22;55741;53.252;5.788;2024-02-15T01:11:53;10.00;99.90
54124;DHT22;55741;53.252;5.788;2024-02-15T01:14:21;9.90;99.90
54124;DHT22;55741;53.252;5.788;2024-02-15T01:16:49;10.00;99.90
54124;DHT22;55741;53.252;5.788;2024-02-15T01:19:16;10.00;99.90
54124;DHT22;55741;53.252;5.788;2024-02-15T01:21:44;9.90;99.90
54124;DHT22;55741;53.252;5.788;2024-02-15T01:24:13;10.00;99.90
54124;DHT22;55741;53.252;5.788;2024-02-15T01:26:41;10.00;99.90
54124;DHT22;55741;53.252;5.788;2024-02-15T01:29:09;9.90;99.90
54124;DHT22;55741;53.252;5.788;2024-02-15T01:31:39;10.00;99.90
54124;DHT22;55741;53.252;5.788;2024-02-15T01:34:06;9.90;99.90
54124;DHT22;55741;53.252;5.788;2024-02-15T01:36:34;10.00;99.90
54124;DHT22;55741;53.252;5.788;2024-02-15T01:39:01;10.00;99.90
54124;DHT22;55741;53.252;5.788;2024-02-15T01:41:29;10.00;99.90
54124;DHT22;55741;53.252;5.788;2024-02-15T01:43:56;10.00;99.90
54124;DHT22;55741;53.252;5.788;2024-02-15T01:46:24;10.00;99.90
54124;DHT22;55741;53.252;5.788;2024-02-15T01:48:52;10.00;99.90
54124;DHT22;55741;53.252;5.788;2024-02-15T01:51:19;10.10;99.90
54124;DHT22;55741;53.252;5.788;2024-02-15T01:53:47;10.10;99.90
54124;DHT22;55741;53.252;5.788;2024-02-15T01:56:16;10.10;99.90
54124;DHT22;55741;53.252;5.788;2024-02-15T01:58:45;10.10;99.90
54124;DHT22;55741;53.252;5.788;2024-02-15T02:01:14;10.10;99.90
54124;DHT22;55741;53.252;5.788;2024-02-15T02:03:42;10.20;99.90
54124;DHT22;55741;53.252;5.788;2024-02-15T02:06:09;10.10;99.90
54124;DHT22;55741;53.252;5.788;2024-02-15T02:08:37;10.20;99.90
54124;DHT22;55741;53.252;5.788;2024-02-15T02:11:05;10.10;99.90
54124;DHT22;55741;53.252;5.788;2024-02-15T02:13:33;10.30;99.90
54124;DHT22;55741;53.252;5.788;2024-02-15T02:16:00;10.20;99.90
54124;DHT22;55741;53.252;5.788;2024-02-15T02:18:27;10.30;99.90
54124;DHT22;55741;53.252;5.788;2024-02-15T02:20:55;10.30;99.90
54124;DHT22;55741;53.252;5.788;2024-02-15T02:23:26;10.30;99.90
54124;DHT22;55741;53.252;5.788;2024-02-15T02:25:54;10.20;99.90
54124;DHT22;55741;53.252;5.788;2024-02-15T02:28:22;10.40;99.90
54124;DHT22;55741;53.252;5.788;2024-02-15T02:30:50;10.30;99.90
54124;DHT22;55741;53.252;5.788;2024-02-15T02:33:18;10.30;99.90
54124;DHT22;55741;53.252;5.788;2024-02-15T02:35:45;10.40;99.90
54124;DHT22;55741;53.252;5.788;2024-02-15T02:38:13;10.40;99.90
54124;DHT22;55741;53.252;5.788;2024-02-15T02:40:41;10.30;99.90
54124;DHT22;55741;53.252;5.788;2024-02-15T02:43:09;10.40;99.90
54124;DHT22;55741;53.252;5.788;2024-02-15T02:45:37;10.30;99.90
54124;DHT22;55741;53.252;5.788;2024-02-15T02:48:04;10.40;99.90
54124;DHT22;55741;53.252;5.788;2024-02-15T02:50:32;10.30;99.90
54124;DHT22;55741;53.252;5.788;2024-02-15T02:53:00;10.40;99.90
54124;DHT22;55741;53.252;5.788;2024-02-15T02:55:27;10.40;99.90
54124;DHT22;55741;53.252;5.788;2024-02-15T02:57:55;10.40;99.90
54124;DHT22;55741;53.252;5.788;2024-02-15T03:00:22;10.40;99.90
54124;DHT22;55741;53.252;5.788;2024-02-15T03:02:50;10.50;99.90
54124;DHT22;55741;53.252;5.788;2024-02-15T03:05:17;10.40;99.90
54124;DHT22;55741;53.252;5.788;2024-02-15T03:07:48;10.40;99.90
54124;DHT22;55741;53.252;5.788;2024-02-15T03:10:16;10.40;99.90
54124;DHT22;55741;53.252;5.788;2024-02-15T03:12:43;10.30;99.90
54124;DHT22;55741;53.252;5.788;2024-02-15T03:15:14;10.30;99.90
54124;DHT22;55741;53.252;5.788;2024-02-15T03:17:43;10.30;99.90
54124;DHT22;55741;53.252;5.788;2024-02-15T03:20:12;10.40;99.90
54124;DHT22;55741;53.252;5.788;2024-02-15T03:22:56;10.40;99.90
54124;DHT22;55741;53.252;5.788;2024-02-15T03:25:25;10.30;99.90
54124;DHT22;55741;53.252;5.788;2024-02-15T03:27:54;10.40;99.90
54124;DHT22;55741;53.252;5.788;2024-02-15T03:30:24;10.30;99.90
54124;DHT22;55741;53.252;5.788;2024-02-15T03:32:52;10.40;99.90
54124;DHT22;55741;53.252;5.788;2024-02-15T03:35:21;10.30;99.90
54124;DHT22;55741;53.252;5.788;2024-02-15T03:37:49;10.30;99.90
54124;DHT22;55741;53.252;5.788;2024-02-15T03:40:21;10.30;99.90
54124;DHT22;55741;53.252;5.788;2024-02-15T03:42:49;10.30;99.90
54124;DHT22;55741;53.252;5.788;2024-02-15T03:45:20;10.30;99.90
54124;DHT22;55741;53.252;5.788;2024-02-15T03:47:48;10.40;99.90
54124;DHT22;55741;53.252;5.788;2024-02-15T03:50:17;10.40;99.90
54124;DHT22;55741;53.252;5.788;2024-02-15T03:52:46;10.40;99.90
54124;DHT22;55741;53.252;5.788;2024-02-15T03:55:13;10.30;99.90
54124;DHT22;55741;53.252;5.788;2024-02-15T03:57:41;10.40;99.90
54124;DHT22;55741;53.252;5.788;2024-02-15T04:00:11;10.40;99.90
54124;DHT22;55741;53.252;5.788;2024-02-15T04:02:40;10.50;99.90
54124;DHT22;55741;53.252;5.788;2024-02-15T04:05:09;10.50;99.90
54124;DHT22;55741;53.252;5.788;2024-02-15T04:07:37;10.40;99.90
54124;DHT22;55741;53.252;5.788;2024-02-15T04:10:05;10.50;99.90
54124;DHT22;55741;53.252;5.788;2024-02-15T04:12:33;10.50;99.90
54124;DHT22;55741;53.252;5.788;2024-02-15T04:15:01;10.50;99.90
54124;DHT22;55741;53.252;5.788;2024-02-15T04:17:32;10.50;99.90
54124;DHT22;55741;53.252;5.788;2024-02-15T04:20:02;10.50;99.90
54124;DHT22;55741;53.252;5.788;2024-02-15T04:22:31;10.50;99.90
54124;DHT22;55741;53.252;5.788;2024-02-15T04:25:05;10.60;99.90
54124;DHT22;55741;53.252;5.788;2024-02-15T04:27:33;10.60;99.90
54124;DHT22;55741;53.252;5.788;2024-02-15T04:30:02;10.50;99.90
54124;DHT22;55741;53.252;5.788;2024-02-15T04:32:30;10.60;99.90
54124;DHT22;55741;53.252;5.788;2024-02-15T04:35:00;10.50;99.90
54124;DHT22;55741;53.252;5.788;2024-02-15T04:37:29;10.60;99.90
54124;DHT22;55741;53.252;5.788;2024-02-15T04:39:59;10.70;99.90
54124;DHT22;55741;53.252;5.788;2024-02-15T04:42:36;10.60;99.90
54124;DHT22;55741;53.252;5.788;2024-02-15T04:45:07;10.70;99.90
54124;DHT22;55741;53.252;5.788;2024-02-15T04:47:41;10.70;99.90
54124;DHT22;55741;53.252;5.788;2024-02-15T04:50:09;10.70;99.90
54124;DHT22;55741;53.252;5.788;2024-02-15T04:52:37;10.80;99.90
54124;DHT22;55741;53.252;5.788;2024-02-15T04:55:04;10.80;99.90
54124;DHT22;55741;53.252;5.788;2024-02-15T04:57:32;10.80;99.90
54124;DHT22;55741;53.252;5.788;2024-02-15T05:00:03;10.80;99.90
54124;DHT22;55741;53.252;5.788;2024-02-15T05:02:37;10.70;99.90
54124;DHT22;55741;53.252;5.788;2024-02-15T05:05:08;10.90;99.90
54124;DHT22;55741;53.252;5.788;2024-02-15T05:07:35;10.80;99.90
54124;DHT22;55741;53.252;5.788;2024-02-15T05:10:06;10.80;99.90
54124;DHT22;55741;53.252;5.788;2024-02-15T05:12:37;10.80;99.90
54124;DHT22;55741;53.252;5.788;2024-02-15T05:15:06;10.90;99.90
54124;DHT22;55741;53.252;5.788;2024-02-15T05:17:40;11.00;99.90
54124;DHT22;55741;53.252;5.788;2024-02-15T05:20:11;11.00;99.90
54124;DHT22;55741;53.252;5.788;2024-02-15T05:22:40;11.00;99.90
54124;DHT22;55741;53.252;5.788;2024-02-15T05:25:13;11.00;99.90
54124;DHT22;55741;53.252;5.788;2024-02-15T05:27:40;11.00;99.90
54124;DHT22;55741;53.252;5.788;2024-02-15T05:30:09;11.00;99.90
54124;DHT22;55741;53.252;5.788;2024-02-15T05:32:39;11.00;99.90
54124;DHT22;55741;53.252;5.788;2024-02-15T05:35:10;11.00;99.90
54124;DHT22;55741;53.252;5.788;2024-02-15T05:37:40;11.00;99.90
54124;DHT22;55741;53.252;5.788;2024-02-15T05:40:08;11.10;99.90
54124;DHT22;55741;53.252;5.788;2024-02-15T05:42:42;11.00;99.90
54124;DHT22;55741;53.252;5.788;2024-02-15T05:47:52;11.00;99.90
54124;DHT22;55741;53.252;5.788;2024-02-15T05:50:21;11.10;99.90
54124;DHT22;55741;53.252;5.788;2024-02-15T05:52:48;11.10;99.90
54124;DHT22;55741;53.252;5.788;2024-02-15T05:55:16;11.10;99.90
54124;DHT22;55741;53.252;5.788;2024-02-15T05:57:44;11.10;99.90
54124;DHT22;55741;53.252;5.788;2024-02-15T06:00:12;11.00;99.90
54124;DHT22;55741;53.252;5.788;2024-02-15T06:02:43;11.00;99.90
54124;DHT22;55741;53.252;5.788;2024-02-15T06:05:11;11.10;99.90
54124;DHT22;55741;53.252;5.788;2024-02-15T06:07:38;11.20;99.90
54124;DHT22;55741;53.252;5.788;2024-02-15T06:10:07;11.10;99.90
54124;DHT22;55741;53.252;5.788;2024-02-15T06:12:34;11.10;99.90
54124;DHT22;55741;53.252;5.788;2024-02-15T06:15:04;11.10;99.90
54124;DHT22;55741;53.252;5.788;2024-02-15T06:17:32;11.20;99.90
54124;DHT22;55741;53.252;5.788;2024-02-15T06:20:00;11.20;99.90
54124;DHT22;55741;53.252;5.788;2024-02-15T06:22:27;11.10;99.90
54124;DHT22;55741;53.252;5.788;2024-02-15T06:24:55;11.10;99.90
54124;DHT22;55741;53.252;5.788;2024-02-15T06:27:23;11.10;99.90
54124;DHT22;55741;53.252;5.788;2024-02-15T06:29:52;11.20;99.90
54124;DHT22;55741;53.252;5.788;2024-02-15T06:32:43;11.10;99.90
54124;DHT22;55741;53.252;5.788;2024-02-15T06:35:29;11.20;99.90
54124;DHT22;55741;53.252;5.788;2024-02-15T06:38:15;11.20;99.90
54124;DHT22;55741;53.252;5.788;2024-02-15T06:41:01;11.10;99.90
54124;DHT22;55741;53.252;5.788;2024-02-15T06:43:28;11.10;99.90
54124;DHT22;55741;53.252;5.788;2024-02-15T06:45:55;11.20;99.90
54124;DHT22;55741;53.252;5.788;2024-02-15T06:48:23;11.20;99.90
54124;DHT22;55741;53.252;5.788;2024-02-15T06:50:52;11.20;99.90
54124;DHT22;55741;53.252;5.788;2024-02-15T06:53:20;11.20;99.90
54124;DHT22;55741;53.252;5.788;2024-02-15T06:55:47;11.30;99.90
54124;DHT22;55741;53.252;5.788;2024-02-15T06:58:16;11.20;99.90
54124;DHT22;55741;53.252;5.788;2024-02-15T07:00:44;11.20;99.90
54124;DHT22;55741;53.252;5.788;2024-02-15T07:03:11;11.20;99.90
54124;DHT22;55741;53.252;5.788;2024-02-15T07:05:39;11.20;99.90
54124;DHT22;55741;53.252;5.788;2024-02-15T07:08:08;11.30;99.90
54124;DHT22;55741;53.252;5.788;2024-02-15T07:10:40;11.20;99.90
54124;DHT22;55741;53.252;5.788;2024-02-15T07:13:07;11.20;99.90
54124;DHT22;55741;53.252;5.788;2024-02-15T07:15:35;11.30;99.90
54124;DHT22;55741;53.252;5.788;2024-02-15T07:18:08;11.30;99.90
54124;DHT22;55741;53.252;5.788;2024-02-15T07:20:35;11.30;99.90
54124;DHT22;55741;53.252;5.788;2024-02-15T07:23:03;11.30;99.90
54124;DHT22;55741;53.252;5.788;2024-02-15T07:25:32;11.30;99.90
54124;DHT22;55741;53.252;5.788;2024-02-15T07:28:00;11.30;99.90
54124;DHT22;55741;53.252;5.788;2024-02-15T07:30:27;11.40;99.90
54124;DHT22;55741;53.252;5.788;2024-02-15T07:32:55;11.40;99.90
54124;DHT22;55741;53.252;5.788;2024-02-15T07:35:23;11.40;99.90
54124;DHT22;55741;53.252;5.788;2024-02-15T07:37:53;11.30;99.90
54124;DHT22;55741;53.252;5.788;2024-02-15T07:40:25;11.30;99.90
54124;DHT22;55741;53.252;5.788;2024-02-15T07:42:57;11.40;99.90
54124;DHT22;55741;53.252;5.788;2024-02-15T07:45:25;11.30;99.90
54124;DHT22;55741;53.252;5.788;2024-02-15T07:47:53;11.40;99.90
54124;DHT22;55741;53.252;5.788;2024-02-15T07:50:20;11.40;99.90
54124;DHT22;55741;53.252;5.788;2024-02-15T07:52:49;11.30;99.90
54124;DHT22;55741;53.252;5.788;2024-02-15T07:55:18;11.40;99.90
54124;DHT22;55741;53.252;5.788;2024-02-15T07:57:46;11.40;99.90
54124;DHT22;55741;53.252;5.788;2024-02-15T08:00:15;11.40;99.90
54124;DHT22;55741;53.252;5.788;2024-02-15T08:02:43;11.30;99.90
54124;DHT22;55741;53.252;5.788;2024-02-15T08:05:12;11.40;99.90
54124;DHT22;55741;53.252;5.788;2024-02-15T08:07:42;11.40;99.90
54124;DHT22;55741;53.252;5.788;2024-02-15T08:10:12;11.40;99.90
54124;DHT22;55741;53.252;5.788;2024-02-15T08:12:46;11.40;99.90
54124;DHT22;55741;53.252;5.788;2024-02-15T08:15:16;11.40;99.90
54124;DHT22;55741;53.252;5.788;2024-02-15T08:17:44;11.40;99.90
54124;DHT22;55741;53.252;5.788;2024-02-15T08:20:14;11.30;99.90
54124;DHT22;55741;53.252;5.788;2024-02-15T08:22:41;11.30;99.90
54124;DHT22;55741;53.252;5.788;2024-02-15T08:25:10;11.40;99.90
54124;DHT22;55741;53.252;5.788;2024-02-15T08:27:47;11.30;99.90
54124;DHT22;55741;53.252;5.788;2024-02-15T08:30:16;11.30;99.90
54124;DHT22;55741;53.252;5.788;2024-02-15T08:32:42;11.40;99.90
54124;DHT22;55741;53.252;5.788;2024-02-15T08:35:09;11.40;99.90
54124;DHT22;55741;53.252;5.788;2024-02-15T08:37:36;11.30;99.90
54124;DHT22;55741;53.252;5.788;2024-02-15T08:40:05;11.30;99.90
54124;DHT22;55741;53.252;5.788;2024-02-15T08:42:42;11.30;99.90
54124;DHT22;55741;53.252;5.788;2024-02-15T08:45:09;11.40;99.90
54124;DHT22;55741;53.252;5.788;2024-02-15T08:47:39;11.30;99.90
54124;DHT22;55741;53.252;5.788;2024-02-15T08:50:06;11.40;99.90
54124;DHT22;55741;53.252;5.788;2024-02-15T08:52:34;11.40;99.90
54124;DHT22;55741;53.252;5.788;2024-02-15T08:55:07;11.40;99.90
54124;DHT22;55741;53.252;5.788;2024-02-15T08:57:37;11.40;99.90
54124;DHT22;55741;53.252;5.788;2024-02-15T09:00:04;11.40;99.90
54124;DHT22;55741;53.252;5.788;2024-02-15T09:02:44;11.40;99.90
54124;DHT22;55741;53.252;5.788;2024-02-15T09:05:11;11.40;99.90
54124;DHT22;55741;53.252;5.788;2024-02-15T09:07:43;11.30;99.90
54124;DHT22;55741;53.252;5.788;2024-02-15T09:10:10;11.40;99.90
54124;DHT22;55741;53.252;5.788;2024-02-15T09:12:37;11.50;99.90
54124;DHT22;55741;53.252;5.788;2024-02-15T09:15:10;11.40;99.90
54124;DHT22;55741;53.252;5.788;2024-02-15T09:17:38;11.60;99.90
54124;DHT22;55741;53.252;5.788;2024-02-15T09:20:07;11.50;99.90
54124;DHT22;55741;53.252;5.788;2024-02-15T09:22:42;11.60;99.90
54124;DHT22;55741;53.252;5.788;2024-02-15T09:25:11;11.60;99.90
54124;DHT22;55741;53.252;5.788;2024-02-15T09:27:40;11.70;99.90
54124;DHT22;55741;53.252;5.788;2024-02-15T09:30:09;11.70;99.90
54124;DHT22;55741;53.252;5.788;2024-02-15T09:32:38;11.70;99.90
54124;DHT22;55741;53.252;5.788;2024-02-15T09:35:06;11.70;99.90
54124;DHT22;55741;53.252;5.788;2024-02-15T09:37:38;11.60;99.90
54124;DHT22;55741;53.252;5.788;2024-02-15T09:40:12;11.70;99.90
54124;DHT22;55741;53.252;5.788;2024-02-15T09:42:39;11.60;99.90
54124;DHT22;55741;53.252;5.788;2024-02-15T09:45:08;11.60;99.90
54124;DHT22;55741;53.252;5.788;2024-02-15T09:47:39;11.50;99.90
54124;DHT22;55741;53.252;5.788;2024-02-15T09:50:16;11.50;99.90
54124;DHT22;55741;53.252;5.788;2024-02-15T09:52:48;11.50;99.90
54124;DHT22;55741;53.252;5.788;2024-02-15T09:55:16;11.50;99.90
54124;DHT22;55741;53.252;5.788;2024-02-15T09:57:45;11.50;99.90
54124;DHT22;55741;53.252;5.788;2024-02-15T10:00:16;11.60;99.90
54124;DHT22;55741;53.252;5.788;2024-02-15T10:02:49;11.50;99.90
54124;DHT22;55741;53.252;5.788;2024-02-15T10:05:17;11.60;99.90
54124;DHT22;55741;53.252;5.788;2024-02-15T10:07:46;11.60;99.90
54124;DHT22;55741;53.252;5.788;2024-02-15T10:12:44;11.60;99.90
54124;DHT22;55741;53.252;5.788;2024-02-15T10:15:30;11.60;99.90
54124;DHT22;55741;53.252;5.788;2024-02-15T10:17:59;11.50;99.90
54124;DHT22;55741;53.252;5.788;2024-02-15T10:20:27;11.60;99.90
54124;DHT22;55741;53.252;5.788;2024-02-15T10:25:37;11.50;99.90
54124;DHT22;55741;53.252;5.788;2024-02-15T10:28:09;11.50;99.90
54124;DHT22;55741;53.252;5.788;2024-02-15T10:30:41;11.50;99.90
54124;DHT22;55741;53.252;5.788;2024-02-15T10:33:27;11.60;99.90
54124;DHT22;55741;53.252;5.788;2024-02-15T10:36:08;11.40;99.90
54124;DHT22;55741;53.252;5.788;2024-02-15T10:38:36;11.50;99.90
54124;DHT22;55741;53.252;5.788;2024-02-15T10:41:06;11.50;99.90
54124;DHT22;55741;53.252;5.788;2024-02-15T10:43:34;11.50;99.90
54124;DHT22;55741;53.252;5.788;2024-02-15T10:46:02;11.40;99.90
54124;DHT22;55741;53.252;5.788;2024-02-15T10:48:30;11.50;99.90
54124;DHT22;55741;53.252;5.788;2024-02-15T10:50:59;11.60;99.90
54124;DHT22;55741;53.252;5.788;2024-02-15T10:53:31;11.50;99.90
54124;DHT22;55741;53.252;5.788;2024-02-15T10:56:17;11.60;99.90
54124;DHT22;55741;53.252;5.788;2024-02-15T10:59:23;11.60;99.90
54124;DHT22;55741;53.252;5.788;2024-02-15T11:01:58;11.60;99.90
54124;DHT22;55741;53.252;5.788;2024-02-15T11:04:30;11.60;99.90
54124;DHT22;55741;53.252;5.788;2024-02-15T11:07:00;11.60;99.90
54124;DHT22;55741;53.252;5.788;2024-02-15T11:09:29;11.70;99.90
54124;DHT22;55741;53.252;5.788;2024-02-15T11:11:57;11.70;99.90
54124;DHT22;55741;53.252;5.788;2024-02-15T11:14:27;11.70;99.90
54124;DHT22;55741;53.252;5.788;2024-02-15T11:16:58;11.60;99.90
54124;DHT22;55741;53.252;5.788;2024-02-15T11:22:14;11.70;99.90
54124;DHT22;55741;53.252;5.788;2024-02-15T11:24:50;11.80;99.90
54124;DHT22;55741;53.252;5.788;2024-02-15T11:27:29;11.80;99.90
54124;DHT22;55741;53.252;5.788;2024-02-15T11:30:00;11.80;99.90
54124;DHT22;55741;53.252;5.788;2024-02-15T11:42:58;11.90;99.90
54124;DHT22;55741;53.252;5.788;2024-02-15T11:45:31;11.90;99.90
54124;DHT22;55741;53.252;5.788;2024-02-15T11:48:01;12.00;99.90
54124;DHT22;55741;53.252;5.788;2024-02-15T11:50:34;11.90;99.90
54124;DHT22;55741;53.252;5.788;2024-02-15T11:53:06;11.90;99.90
54124;DHT22;55741;53.252;5.788;2024-02-15T11:55:38;11.90;99.90
54124;DHT22;55741;53.252;5.788;2024-02-15T11:58:07;12.00;99.90
54124;DHT22;55741;53.252;5.788;2024-02-15T12:00:36;12.00;99.90
54124;DHT22;55741;53.252;5.788;2024-02-15T12:03:23;11.90;99.90
54124;DHT22;55741;53.252;5.788;2024-02-15T12:06:09;11.90;99.90
54124;DHT22;55741;53.252;5.788;2024-02-15T12:08:55;11.90;99.90
54124;DHT22;55741;53.252;5.788;2024-02-15T12:11:42;11.90;99.90
54124;DHT22;55741;53.252;5.788;2024-02-15T12:14:41;12.00;99.90
54124;DHT22;55741;53.252;5.788;2024-02-15T12:17:27;11.90;99.90
54124;DHT22;55741;53.252;5.788;2024-02-15T12:20:13;11.90;99.90
54124;DHT22;55741;53.252;5.788;2024-02-15T12:22:44;11.90;99.90
54124;DHT22;55741;53.252;5.788;2024-02-15T12:25:18;11.90;99.90
54124;DHT22;55741;53.252;5.788;2024-02-15T12:27:59;11.90;99.90
54124;DHT22;55741;53.252;5.788;2024-02-15T12:30:33;11.80;99.90
54124;DHT22;55741;53.252;5.788;2024-02-15T12:33:10;11.80;99.90
54124;DHT22;55741;53.252;5.788;2024-02-15T12:35:38;11.80;99.90
54124;DHT22;55741;53.252;5.788;2024-02-15T12:38:05;11.90;99.90
54124;DHT22;55741;53.252;5.788;2024-02-15T12:40:34;11.80;99.90
54124;DHT22;55741;53.252;5.788;2024-02-15T12:43:05;11.80;99.90
54124;DHT22;55741;53.252;5.788;2024-02-15T12:45:39;11.80;99.90
54124;DHT22;55741;53.252;5.788;2024-02-15T12:48:08;11.80;99.90
54124;DHT22;55741;53.252;5.788;2024-02-15T12:50:36;11.90;99.90
54124;DHT22;55741;53.252;5.788;2024-02-15T12:53:04;11.90;99.90
54124;DHT22;55741;53.252;5.788;2024-02-15T12:55:34;11.90;99.90
54124;DHT22;55741;53.252;5.788;2024-02-15T12:58:12;11.90;99.90
54124;DHT22;55741;53.252;5.788;2024-02-15T13:00:42;11.80;99.90
54124;DHT22;55741;53.252;5.788;2024-02-15T13:03:09;11.90;99.90
54124;DHT22;55741;53.252;5.788;2024-02-15T13:05:38;12.00;99.90
54124;DHT22;55741;53.252;5.788;2024-02-15T13:08:06;11.90;99.90
54124;DHT22;55741;53.252;5.788;2024-02-15T13:10:37;12.00;99.90
54124;DHT22;55741;53.252;5.788;2024-02-15T13:13:06;11.90;99.90
54124;DHT22;55741;53.252;5.788;2024-02-15T13:15:36;11.90;99.90
54124;DHT22;55741;53.252;5.788;2024-02-15T13:18:04;12.00;99.90
54124;DHT22;55741;53.252;5.788;2024-02-15T13:20:32;12.00;99.90
54124;DHT22;55741;53.252;5.788;2024-02-15T13:23:04;12.00;99.90
54124;DHT22;55741;53.252;5.788;2024-02-15T13:25:52;12.10;99.90
54124;DHT22;55741;53.252;5.788;2024-02-15T13:28:20;12.00;99.90
54124;DHT22;55741;53.252;5.788;2024-02-15T13:30:48;12.10;99.90
54124;DHT22;55741;53.252;5.788;2024-02-15T13:33:16;12.00;99.90
54124;DHT22;55741;53.252;5.788;2024-02-15T13:35:44;12.10;99.90
54124;DHT22;55741;53.252;5.788;2024-02-15T13:38:12;12.10;99.90
54124;DHT22;55741;53.252;5.788;2024-02-15T13:40:49;12.10;99.90
54124;DHT22;55741;53.252;5.788;2024-02-15T13:43:18;12.00;99.90
54124;DHT22;55741;53.252;5.788;2024-02-15T13:45:46;12.10;99.90
54124;DHT22;55741;53.252;5.788;2024-02-15T13:48:16;12.10;99.90
54124;DHT22;55741;53.252;5.788;2024-02-15T13:50:44;12.10;99.90
54124;DHT22;55741;53.252;5.788;2024-02-15T13:53:11;12.20;99.90
54124;DHT22;55741;53.252;5.788;2024-02-15T13:55:41;12.20;99.90
54124;DHT22;55741;53.252;5.788;2024-02-15T13:58:08;12.20;99.90
54124;DHT22;55741;53.252;5.788;2024-02-15T14:00:40;12.10;99.90
54124;DHT22;55741;53.252;5.788;2024-02-15T14:03:11;12.10;99.90
54124;DHT22;55741;53.252;5.788;2024-02-15T14:05:38;12.10;99.90
54124;DHT22;55741;53.252;5.788;2024-02-15T14:08:08;12.30;99.90
54124;DHT22;55741;53.252;5.788;2024-02-15T14:10:39;12.10;99.90
54124;DHT22;55741;53.252;5.788;2024-02-15T14:13:06;12.20;99.90
54124;DHT22;55741;53.252;5.788;2024-02-15T14:15:38;12.30;99.90
54124;DHT22;55741;53.252;5.788;2024-02-15T14:18:07;12.20;99.90
54124;DHT22;55741;53.252;5.788;2024-02-15T14:20:37;12.20;99.90
54124;DHT22;55741;53.252;5.788;2024-02-15T14:23:05;12.20;99.90
54124;DHT22;55741;53.252;5.788;2024-02-15T14:25:33;12.20;99.90
54124;DHT22;55741;53.252;5.788;2024-02-15T14:28:01;12.30;99.90
54124;DHT22;55741;53.252;5.788;2024-02-15T14:30:30;12.20;99.90
54124;DHT22;55741;53.252;5.788;2024-02-15T14:33:16;12.20;99.90
54124;DHT22;55741;53.252;5.788;2024-02-15T14:35:46;12.30;99.90
54124;DHT22;55741;53.252;5.788;2024-02-15T14:38:14;12.40;99.90
54124;DHT22;55741;53.252;5.788;2024-02-15T14:40:45;12.40;99.90
54124;DHT22;55741;53.252;5.788;2024-02-15T14:43:20;12.40;99.90
54124;DHT22;55741;53.252;5.788;2024-02-15T14:45:48;12.40;99.90
54124;DHT22;55741;53.252;5.788;2024-02-15T14:48:17;12.50;99.90
54124;DHT22;55741;53.252;5.788;2024-02-15T14:50:47;12.50;99.90
54124;DHT22;55741;53.252;5.788;2024-02-15T14:53:17;12.60;99.90
54124;DHT22;55741;53.252;5.788;2024-02-15T14:55:45;12.50;99.90
54124;DHT22;55741;53.252;5.788;2024-02-15T14:58:16;12.60;99.90
54124;DHT22;55741;53.252;5.788;2024-02-15T15:00:45;12.60;99.90
54124;DHT22;55741;53.252;5.788;2024-02-15T15:03:13;12.60;99.90
54124;DHT22;55741;53.252;5.788;2024-02-15T15:05:41;12.60;99.90
54124;DHT22;55741;53.252;5.788;2024-02-15T15:08:27;12.70;99.90
54124;DHT22;55741;53.252;5.788;2024-02-15T15:11:14;12.60;99.90
54124;DHT22;55741;53.252;5.788;2024-02-15T15:14:00;12.70;99.90
54124;DHT22;55741;53.252;5.788;2024-02-15T15:16:27;12.70;99.90
54124;DHT22;55741;53.252;5.788;2024-02-15T15:18:55;12.70;99.90
54124;DHT22;55741;53.252;5.788;2024-02-15T15:21:23;12.80;99.90
54124;DHT22;55741;53.252;5.788;2024-02-15T15:23:50;12.70;99.90
54124;DHT22;55741;53.252;5.788;2024-02-15T15:26:19;12.80;99.90
54124;DHT22;55741;53.252;5.788;2024-02-15T15:28:48;12.90;99.90
54124;DHT22;55741;53.252;5.788;2024-02-15T15:31:16;12.80;99.90
54124;DHT22;55741;53.252;5.788;2024-02-15T15:33:44;12.80;99.90
54124;DHT22;55741;53.252;5.788;2024-02-15T15:36:12;12.80;99.90
54124;DHT22;55741;53.252;5.788;2024-02-15T15:38:39;12.80;99.90
54124;DHT22;55741;53.252;5.788;2024-02-15T15:41:09;12.80;99.90
54124;DHT22;55741;53.252;5.788;2024-02-15T15:43:37;12.90;99.90
54124;DHT22;55741;53.252;5.788;2024-02-15T15:46:05;12.80;99.90
54124;DHT22;55741;53.252;5.788;2024-02-15T15:48:32;12.80;99.90
54124;DHT22;55741;53.252;5.788;2024-02-15T15:51:00;12.90;99.90
54124;DHT22;55741;53.252;5.788;2024-02-15T15:53:32;12.80;99.90
54124;DHT22;55741;53.252;5.788;2024-02-15T15:56:01;12.80;99.90
54124;DHT22;55741;53.252;5.788;2024-02-15T15:58:28;12.90;99.90
54124;DHT22;55741;53.252;5.788;2024-02-15T16:00:57;12.80;99.90
54124;DHT22;55741;53.252;5.788;2024-02-15T16:03:24;12.80;99.90
54124;DHT22;55741;53.252;5.788;2024-02-15T16:05:52;12.80;99.90
54124;DHT22;55741;53.252;5.788;2024-02-15T16:08:19;12.70;99.90